createdAt,value
2019-03-01T00:01:04.830Z,23.26
2019-03-01T00:03:33.886Z,23.25
2019-03-01T00:06:23.566Z,23.23
2019-03-01T00:09:01.219Z,23.23
2019-03-01T00:11:52.318Z,23.22
2019-03-01T00:14:55.678Z,23.23
2019-03-01T00:17:48.750Z,23.23
2019-03-01T00:20:23.137Z,23.22
2019-03-01T00:23:03.908Z,23.21
2019-03-01T00:25:44.337Z,23.21
2019-03-01T00:28:21.970Z,23.21
2019-03-01T00:30:53.653Z,23.18
2019-03-01T00:33:58.903Z,23.17
2019-03-01T00:36:50.061Z,23.18
2019-03-01T00:39:39.959Z,23.18
2019-03-01T00:42:17.332Z,23.15
2019-03-01T00:44:48.345Z,23.15
2019-03-01T00:47:17.200Z,23.12
2019-03-01T00:49:45.585Z,23.12
2019-03-01T00:52:14.072Z,23.11
2019-03-01T00:54:42.465Z,23.12
2019-03-01T00:57:10.895Z,23.11
2019-03-01T00:59:39.284Z,23.09
2019-03-01T01:02:07.704Z,23.09
2019-03-01T01:04:36.088Z,23.08
2019-03-01T01:07:04.524Z,23.08
2019-03-01T01:09:32.919Z,23.08
2019-03-01T01:12:01.337Z,23.07
2019-03-01T01:14:29.719Z,23.06
2019-03-01T01:16:58.148Z,23.06
2019-03-01T01:19:26.534Z,23.07
2019-03-01T01:21:55.035Z,23.06
2019-03-01T01:24:23.420Z,23.03
2019-03-01T01:26:51.831Z,23.04
2019-03-01T01:29:20.213Z,23.02
2019-03-01T01:31:48.632Z,23.02
2019-03-01T01:34:17.036Z,23.01
2019-03-01T01:36:45.457Z,23.01
2019-03-01T01:39:13.845Z,23.00
2019-03-01T01:41:42.346Z,22.99
2019-03-01T01:44:10.739Z,22.97
2019-03-01T01:46:39.125Z,22.97
2019-03-01T01:49:07.512Z,22.96
2019-03-01T01:51:35.951Z,22.96
2019-03-01T01:54:04.513Z,22.94
2019-03-01T01:56:32.993Z,22.94
2019-03-01T01:59:01.414Z,22.94
2019-03-01T02:01:29.803Z,22.92
2019-03-01T02:03:58.184Z,22.90
2019-03-01T02:06:26.741Z,22.89
2019-03-01T02:08:55.134Z,22.90
2019-03-01T02:11:23.596Z,22.88
2019-03-01T02:13:51.984Z,22.88
2019-03-01T02:16:20.374Z,22.87
2019-03-01T02:18:57.256Z,22.86
2019-03-01T02:21:18.982Z,22.86
2019-03-01T02:23:47.378Z,22.86
2019-03-01T02:26:15.772Z,22.84
2019-03-01T02:28:44.161Z,22.84
2019-03-01T02:31:12.884Z,22.83
2019-03-01T02:33:41.280Z,22.83
2019-03-01T02:36:09.667Z,22.82
2019-03-01T02:38:38.073Z,22.82
2019-03-01T02:41:06.465Z,22.81
2019-03-01T02:43:34.855Z,22.80
2019-03-01T02:46:03.244Z,22.80
2019-03-01T02:48:31.718Z,22.79
2019-03-01T02:51:00.210Z,22.79
2019-03-01T02:53:28.607Z,22.78
2019-03-01T02:55:56.999Z,22.75
2019-03-01T02:58:25.393Z,22.76
2019-03-01T03:00:53.784Z,22.76
2019-03-01T03:03:22.173Z,22.75
2019-03-01T03:05:55.195Z,22.75
2019-03-01T03:08:23.614Z,22.75
2019-03-01T03:10:52.026Z,22.74
2019-03-01T03:13:20.415Z,22.73
2019-03-01T03:15:50.687Z,22.72
2019-03-01T03:18:19.110Z,22.71
2019-03-01T03:20:47.613Z,22.72
2019-03-01T03:23:16.026Z,22.71
2019-03-01T03:25:44.415Z,22.69
2019-03-01T03:28:12.854Z,22.68
2019-03-01T03:30:41.242Z,22.69
2019-03-01T03:33:09.696Z,22.67
2019-03-01T03:35:38.087Z,22.67
2019-03-01T03:38:06.513Z,22.67
2019-03-01T03:40:34.900Z,22.67
2019-03-01T03:43:03.333Z,22.65
2019-03-01T03:45:31.720Z,22.64
2019-03-01T03:48:00.223Z,22.62
2019-03-01T03:50:28.607Z,22.63
2019-03-01T03:52:57.046Z,22.62
2019-03-01T03:55:25.467Z,22.60
2019-03-01T03:57:53.854Z,22.59
2019-03-01T04:00:25.691Z,22.59
2019-03-01T04:02:54.279Z,22.58
2019-03-01T04:05:22.636Z,22.57
2019-03-01T04:07:51.023Z,22.58
2019-03-01T04:10:19.414Z,22.56
2019-03-01T04:12:47.813Z,22.56
2019-03-01T04:15:18.885Z,22.56
2019-03-01T04:17:47.269Z,22.54
2019-03-01T04:20:19.035Z,22.54
2019-03-01T04:22:47.421Z,22.53
2019-03-01T04:25:15.814Z,22.52
2019-03-01T04:27:44.214Z,22.53
2019-03-01T04:30:14.731Z,22.51
2019-03-01T04:32:43.152Z,22.51
2019-03-01T04:35:11.670Z,22.50
2019-03-01T04:37:40.149Z,22.49
2019-03-01T04:40:13.699Z,22.49
2019-03-01T04:42:42.132Z,22.47
2019-03-01T04:45:15.593Z,22.48
2019-03-01T04:47:44.147Z,22.46
2019-03-01T04:50:12.805Z,22.47
2019-03-01T04:52:41.739Z,22.46
2019-03-01T04:55:18.525Z,22.44
2019-03-01T04:57:46.917Z,22.45
2019-03-01T05:00:17.251Z,22.43
2019-03-01T05:02:45.637Z,22.43
2019-03-01T05:05:14.373Z,22.42
2019-03-01T05:07:42.757Z,22.42
2019-03-01T05:10:13.084Z,22.40
2019-03-01T05:12:41.485Z,22.39
2019-03-01T05:15:18.451Z,22.38
2019-03-01T05:17:46.845Z,22.38
2019-03-01T05:20:15.240Z,22.37
2019-03-01T05:22:43.630Z,22.37
2019-03-01T05:25:12.189Z,22.36
2019-03-01T05:27:40.564Z,22.34
2019-03-01T05:30:11.596Z,22.34
2019-03-01T05:32:40.011Z,22.34
2019-03-01T05:35:08.663Z,22.33
2019-03-01T05:37:37.093Z,22.33
2019-03-01T05:40:08.662Z,22.34
2019-03-01T05:42:37.058Z,22.33
2019-03-01T05:45:08.844Z,22.31
2019-03-01T05:47:37.233Z,22.31
2019-03-01T05:50:08.890Z,22.32
2019-03-01T05:52:37.287Z,22.31
2019-03-01T05:55:08.153Z,22.31
2019-03-01T05:57:36.544Z,22.31
2019-03-01T06:00:09.929Z,22.30
2019-03-01T06:02:47.115Z,22.29
2019-03-01T06:05:15.705Z,22.30
2019-03-01T06:07:59.271Z,22.27
2019-03-01T06:13:22.817Z,22.25
2019-03-01T06:16:00.470Z,22.25
2019-03-01T06:18:48.555Z,22.27
2019-03-01T06:21:55.260Z,22.28
2019-03-01T06:24:51.245Z,22.29
2019-03-01T06:27:39.158Z,22.29
2019-03-01T06:30:25.815Z,22.30
2019-03-01T06:33:12.496Z,22.29
2019-03-01T06:36:02.231Z,22.30
2019-03-01T06:38:53.132Z,22.31
2019-03-01T06:41:35.119Z,22.31
2019-03-01T06:44:06.854Z,22.33
2019-03-01T06:46:55.328Z,22.33
2019-03-01T06:49:25.356Z,22.33
2019-03-01T06:51:53.749Z,22.35
2019-03-01T06:54:22.149Z,22.37
2019-03-01T06:56:50.553Z,22.36
2019-03-01T06:59:18.979Z,22.37
2019-03-01T07:01:48.126Z,22.39
2019-03-01T07:04:17.097Z,22.40
2019-03-01T07:06:45.491Z,22.42
2019-03-01T07:09:13.929Z,22.43
2019-03-01T07:11:42.322Z,22.45
2019-03-01T07:14:10.756Z,22.46
2019-03-01T07:16:39.146Z,22.48
2019-03-01T07:19:07.594Z,22.49
2019-03-01T07:21:36.039Z,22.50
2019-03-01T07:24:04.574Z,22.52
2019-03-01T07:26:33.021Z,22.54
2019-03-01T07:29:01.423Z,22.54
2019-03-01T07:31:29.806Z,22.56
2019-03-01T07:33:58.198Z,22.58
2019-03-01T07:36:26.579Z,22.59
2019-03-01T07:38:54.974Z,22.62
2019-03-01T07:41:23.604Z,22.65
2019-03-01T07:43:51.995Z,22.66
2019-03-01T07:46:20.447Z,22.68
2019-03-01T07:48:48.901Z,22.69
2019-03-01T07:51:17.300Z,22.71
2019-03-01T07:53:45.680Z,22.73
2019-03-01T07:56:14.157Z,22.76
2019-03-01T07:58:42.550Z,22.78
2019-03-01T08:01:10.935Z,22.80
2019-03-01T08:03:39.334Z,22.83
2019-03-01T08:06:13.098Z,22.83
2019-03-01T08:08:38.787Z,22.85
2019-03-01T08:11:08.039Z,22.86
2019-03-01T08:13:36.423Z,22.84
2019-03-01T08:16:04.806Z,22.87
2019-03-01T08:18:33.201Z,22.89
2019-03-01T08:21:01.597Z,22.91
2019-03-01T08:23:31.712Z,22.92
2019-03-01T08:26:00.128Z,22.95
2019-03-01T08:28:28.603Z,22.89
2019-03-01T08:30:56.983Z,22.97
2019-03-01T08:33:25.397Z,22.98
2019-03-01T08:35:53.785Z,23.02
2019-03-01T08:38:25.370Z,23.06
2019-03-01T08:40:54.449Z,23.09
2019-03-01T08:43:22.498Z,23.13
2019-03-01T08:45:50.885Z,23.15
2019-03-01T08:48:19.295Z,23.21
2019-03-01T08:50:47.678Z,23.24
2019-03-01T08:53:16.201Z,23.30
2019-03-01T08:55:44.595Z,23.34
2019-03-01T08:58:13.003Z,23.41
2019-03-01T09:00:43.823Z,23.51
2019-03-01T09:03:35.048Z,23.59
2019-03-01T09:06:03.436Z,23.64
2019-03-01T09:08:31.864Z,23.72
2019-03-01T09:11:00.254Z,23.79
2019-03-01T09:13:28.676Z,23.90
2019-03-01T09:15:57.065Z,23.98
2019-03-01T09:18:25.538Z,24.05
2019-03-01T09:20:53.921Z,24.12
2019-03-01T09:23:26.417Z,24.19
2019-03-01T09:25:52.466Z,24.25
2019-03-01T09:28:20.885Z,24.36
2019-03-01T09:30:49.273Z,24.44
2019-03-01T09:33:21.573Z,24.52
2019-03-01T09:35:52.141Z,24.63
2019-03-01T09:38:20.573Z,24.71
2019-03-01T09:40:48.956Z,24.79
2019-03-01T09:43:17.392Z,24.88
2019-03-01T09:45:48.814Z,24.97
2019-03-01T09:48:15.906Z,25.04
2019-03-01T09:50:44.298Z,25.13
2019-03-01T09:53:12.703Z,25.20
2019-03-01T09:55:41.076Z,25.29
2019-03-01T09:58:09.468Z,25.38
2019-03-01T10:00:56.042Z,25.46
2019-03-01T10:03:17.123Z,25.54
2019-03-01T10:05:45.509Z,25.64
2019-03-01T10:08:14.238Z,25.72
2019-03-01T10:10:42.634Z,25.79
2019-03-01T10:13:11.021Z,25.86
2019-03-01T10:15:39.414Z,25.95
2019-03-01T10:18:07.805Z,26.02
2019-03-01T10:20:36.268Z,26.11
2019-03-01T10:23:04.652Z,26.20
2019-03-01T10:25:33.040Z,26.27
2019-03-01T10:28:01.429Z,26.36
2019-03-01T10:30:29.882Z,26.45
2019-03-01T10:32:58.294Z,26.53
2019-03-01T10:35:26.670Z,26.61
2019-03-01T10:37:55.133Z,26.71
2019-03-01T10:40:24.671Z,26.81
2019-03-01T10:42:53.048Z,26.89
2019-03-01T10:45:24.723Z,27.01
2019-03-01T10:47:53.109Z,27.09
2019-03-01T10:50:21.496Z,27.18
2019-03-01T10:52:49.892Z,27.25
2019-03-01T10:55:19.201Z,27.34
2019-03-01T10:57:47.656Z,27.43
2019-03-01T11:00:26.737Z,27.51
2019-03-01T11:02:56.064Z,27.59
2019-03-01T11:05:25.238Z,27.72
2019-03-01T11:07:57.202Z,27.83
2019-03-01T11:10:28.856Z,27.99
2019-03-01T11:12:57.243Z,28.15
2019-03-01T11:15:25.649Z,28.36
2019-03-01T11:17:54.125Z,28.54
2019-03-01T11:20:22.892Z,28.75
2019-03-01T11:22:51.320Z,28.93
2019-03-01T11:25:21.965Z,29.14
2019-03-01T11:27:50.351Z,29.34
2019-03-01T11:30:27.467Z,29.52
2019-03-01T11:32:55.862Z,29.66
2019-03-01T11:35:24.286Z,29.78
2019-03-01T11:37:52.685Z,29.92
2019-03-01T11:40:23.884Z,30.03
2019-03-01T11:42:52.269Z,30.15
2019-03-01T11:45:20.710Z,30.26
2019-03-01T11:47:49.127Z,30.39
2019-03-01T11:50:22.666Z,30.42
2019-03-01T11:52:51.126Z,30.37
2019-03-01T11:55:19.614Z,30.32
2019-03-01T11:57:48.247Z,30.35
2019-03-01T12:00:26.585Z,30.42
2019-03-01T12:02:54.967Z,30.46
2019-03-01T12:05:23.374Z,30.52
2019-03-01T12:07:51.767Z,30.53
2019-03-01T12:10:28.604Z,30.47
2019-03-01T12:12:58.621Z,30.43
2019-03-01T12:15:27.088Z,30.43
2019-03-01T12:17:55.483Z,30.51
2019-03-01T12:20:30.010Z,30.64
2019-03-01T12:22:58.398Z,30.67
2019-03-01T12:25:26.794Z,30.75
2019-03-01T12:27:55.227Z,30.83
2019-03-01T12:30:25.194Z,30.84
2019-03-01T12:32:53.639Z,30.81
2019-03-01T12:35:22.033Z,30.92
2019-03-01T12:37:50.413Z,31.07
2019-03-01T12:40:30.041Z,31.14
2019-03-01T12:42:58.434Z,31.17
2019-03-01T12:45:26.825Z,31.20
2019-03-01T12:47:55.231Z,31.21
2019-03-01T12:50:23.699Z,31.20
2019-03-01T12:52:52.095Z,31.24
2019-03-01T12:55:25.859Z,31.21
2019-03-01T12:57:54.301Z,31.21
2019-03-01T13:00:25.209Z,31.23
2019-03-01T13:02:53.590Z,31.16
2019-03-01T13:05:22.019Z,30.97
2019-03-01T13:07:50.406Z,30.75
2019-03-01T13:10:22.103Z,30.53
2019-03-01T13:12:50.487Z,30.39
2019-03-01T13:15:18.893Z,30.23
2019-03-01T13:17:47.290Z,30.11
2019-03-01T13:20:18.345Z,30.07
2019-03-01T13:22:46.780Z,30.01
2019-03-01T13:25:15.790Z,29.94
2019-03-01T13:27:44.198Z,29.95
2019-03-01T13:30:17.702Z,29.96
2019-03-01T13:32:46.100Z,29.87
2019-03-01T13:35:16.461Z,29.77
2019-03-01T13:37:44.852Z,29.63
2019-03-01T13:40:15.328Z,29.45
2019-03-01T13:42:43.711Z,29.28
2019-03-01T13:45:17.287Z,29.11
2019-03-01T13:47:45.663Z,28.93
2019-03-01T13:50:16.234Z,28.77
2019-03-01T13:52:44.631Z,28.66
2019-03-01T13:55:14.899Z,28.55
2019-03-01T13:57:46.008Z,28.45
2019-03-01T14:00:21.914Z,28.32
2019-03-01T14:02:50.443Z,28.22
2019-03-01T14:05:19.006Z,28.12
2019-03-01T14:07:48.331Z,28.04
2019-03-01T14:10:19.588Z,27.94
2019-03-01T14:12:47.986Z,27.83
2019-03-01T14:15:17.642Z,27.73
2019-03-01T14:17:46.021Z,27.63
2019-03-01T14:20:20.361Z,27.53
2019-03-01T14:22:49.419Z,27.45
2019-03-01T14:25:18.364Z,27.36
2019-03-01T14:27:46.799Z,27.29
2019-03-01T14:30:31.166Z,27.22
2019-03-01T14:32:57.491Z,27.14
2019-03-01T14:35:27.178Z,27.07
2019-03-01T14:37:55.976Z,27.01
2019-03-01T14:40:24.418Z,26.95
2019-03-01T14:42:52.799Z,26.87
2019-03-01T14:45:32.526Z,26.80
2019-03-01T14:48:00.912Z,26.73
2019-03-01T14:50:33.623Z,26.63
2019-03-01T14:53:00.648Z,26.56
2019-03-01T14:55:38.112Z,26.49
2019-03-01T14:58:15.695Z,26.42
2019-03-01T15:00:56.139Z,26.33
2019-03-01T15:03:32.952Z,26.25
2019-03-01T15:06:01.325Z,26.18
2019-03-01T15:08:30.075Z,26.12
2019-03-01T15:11:04.396Z,26.07
2019-03-01T15:13:34.783Z,25.99
2019-03-01T15:16:04.691Z,25.94
2019-03-01T15:18:33.654Z,25.88
2019-03-01T15:21:02.837Z,25.83
2019-03-01T15:23:31.446Z,25.78
2019-03-01T15:25:59.893Z,25.73
2019-03-01T15:28:28.294Z,25.68
2019-03-01T15:30:57.345Z,25.64
2019-03-01T15:33:25.907Z,25.57
2019-03-01T15:35:54.386Z,25.53
2019-03-01T15:38:23.921Z,25.47
2019-03-01T15:40:52.920Z,25.43
2019-03-01T15:43:21.360Z,25.39
2019-03-01T15:45:49.748Z,25.34
2019-03-01T15:48:18.131Z,25.29
2019-03-01T15:50:46.523Z,25.25
2019-03-01T15:53:14.916Z,25.20
2019-03-01T15:55:44.954Z,25.17
2019-03-01T15:58:13.357Z,25.14
2019-03-01T16:00:41.746Z,25.08
2019-03-01T16:03:10.140Z,25.04
2019-03-01T16:05:38.533Z,25.01
2019-03-01T16:08:08.365Z,24.97
2019-03-01T16:10:37.039Z,24.93
2019-03-01T16:13:08.314Z,24.89
2019-03-01T16:15:38.720Z,24.86
2019-03-01T16:18:05.692Z,24.82
2019-03-01T16:20:34.128Z,24.80
2019-03-01T16:23:02.519Z,24.76
2019-03-01T16:25:30.903Z,24.74
2019-03-01T16:27:59.296Z,24.70
2019-03-01T16:30:27.682Z,24.67
2019-03-01T16:32:56.083Z,24.64
2019-03-01T16:35:24.469Z,24.61
2019-03-01T16:37:57.878Z,24.59
2019-03-01T16:40:27.594Z,24.55
2019-03-01T16:42:55.994Z,24.54
2019-03-01T16:45:24.541Z,24.51
2019-03-01T16:47:52.929Z,24.49
2019-03-01T16:50:21.491Z,24.46
2019-03-01T16:52:49.889Z,24.46
2019-03-01T16:55:24.353Z,24.43
2019-03-01T16:58:05.986Z,24.40
2019-03-01T17:00:24.478Z,24.38
2019-03-01T17:03:17.104Z,24.35
2019-03-01T17:05:43.722Z,24.34
2019-03-01T17:08:12.118Z,24.31
2019-03-01T17:10:40.510Z,24.28
2019-03-01T17:13:08.900Z,24.27
2019-03-01T17:15:37.304Z,24.25
2019-03-01T17:18:11.276Z,24.22
2019-03-01T17:20:38.402Z,24.19
2019-03-01T17:23:06.050Z,24.19
2019-03-01T17:25:34.458Z,24.19
2019-03-01T17:28:02.892Z,24.16
2019-03-01T17:30:31.291Z,24.15
2019-03-01T17:32:59.747Z,24.13
2019-03-01T17:35:28.125Z,24.12
2019-03-01T17:37:56.558Z,24.10
2019-03-01T17:40:24.974Z,24.09
2019-03-01T17:42:56.582Z,24.07
2019-03-01T17:45:25.726Z,24.04
2019-03-01T17:47:55.398Z,24.04
2019-03-01T17:50:23.945Z,24.01
2019-03-01T17:52:52.432Z,24.00
2019-03-01T17:55:25.467Z,24.00
2019-03-01T17:57:54.021Z,23.98
2019-03-01T18:00:34.033Z,23.97
2019-03-01T18:03:02.424Z,23.95
2019-03-01T18:05:30.827Z,23.94
2019-03-01T18:07:59.845Z,23.93
2019-03-01T18:10:32.095Z,23.86
2019-03-01T18:12:59.493Z,23.89
2019-03-01T18:15:27.885Z,23.75
2019-03-01T18:17:57.210Z,23.88
2019-03-01T18:20:25.608Z,23.86
2019-03-01T18:22:54.206Z,23.85
2019-03-01T18:25:25.877Z,23.85
2019-03-01T18:27:53.807Z,23.83
2019-03-01T18:30:23.935Z,23.82
2019-03-01T18:32:52.516Z,23.81
2019-03-01T18:35:20.921Z,23.79
2019-03-01T18:37:51.434Z,23.78
2019-03-01T18:40:21.092Z,23.78
2019-03-01T18:42:49.491Z,23.76
2019-03-01T18:45:22.734Z,23.74
2019-03-01T18:47:51.169Z,23.74
2019-03-01T18:50:31.347Z,23.74
2019-03-01T18:53:00.171Z,23.71
2019-03-01T18:55:28.563Z,23.71
2019-03-01T18:57:56.996Z,23.69
2019-03-01T19:00:32.418Z,23.68
2019-03-01T19:03:04.379Z,23.68
2019-03-01T19:05:32.016Z,23.69
2019-03-01T19:08:00.862Z,23.68
2019-03-01T19:10:30.668Z,23.67
2019-03-01T19:12:59.112Z,23.65
2019-03-01T19:15:27.497Z,23.64
2019-03-01T19:17:55.995Z,23.62
2019-03-01T19:20:29.414Z,23.60
2019-03-01T19:22:58.683Z,23.59
2019-03-01T19:25:27.173Z,23.57
2019-03-01T19:27:55.622Z,23.58
2019-03-01T19:30:25.486Z,23.57
2019-03-01T19:32:53.898Z,23.56
2019-03-01T19:35:28.262Z,23.55
2019-03-01T19:37:53.579Z,23.54
2019-03-01T19:40:22.925Z,23.53
2019-03-01T19:42:53.028Z,23.52
2019-03-01T19:45:21.431Z,23.50
2019-03-01T19:47:49.858Z,23.50
2019-03-01T19:50:25.009Z,23.49
2019-03-01T19:52:53.799Z,23.47
2019-03-01T19:55:22.186Z,23.47
2019-03-01T19:57:50.622Z,23.44
2019-03-01T20:00:27.152Z,23.43
2019-03-01T20:02:55.588Z,23.43
2019-03-01T20:05:31.715Z,23.41
2019-03-01T20:07:59.263Z,23.39
2019-03-01T20:10:27.709Z,23.38
2019-03-01T20:12:56.065Z,23.37
2019-03-01T20:15:25.972Z,23.35
2019-03-01T20:17:54.937Z,23.34
2019-03-01T20:20:25.736Z,23.33
2019-03-01T20:22:55.241Z,23.33
2019-03-01T20:25:23.747Z,23.32
2019-03-01T20:27:52.180Z,23.30
2019-03-01T20:30:30.117Z,23.28
2019-03-01T20:32:55.618Z,23.26
2019-03-01T20:35:25.838Z,23.26
2019-03-01T20:37:54.234Z,23.26
2019-03-01T20:40:26.138Z,23.24
2019-03-01T20:42:55.860Z,23.23
2019-03-01T20:45:29.937Z,23.21
2019-03-01T20:47:58.836Z,23.20
2019-03-01T20:50:27.306Z,23.19
2019-03-01T20:52:55.874Z,23.18
2019-03-01T20:55:24.270Z,23.18
2019-03-01T20:57:52.674Z,23.15
2019-03-01T21:00:26.157Z,23.13
2019-03-01T21:02:56.657Z,23.13
2019-03-01T21:05:28.737Z,23.11
2019-03-01T21:07:55.183Z,23.10
2019-03-01T21:10:27.951Z,23.09
2019-03-01T21:12:56.451Z,23.08
2019-03-01T21:15:25.000Z,23.07
2019-03-01T21:17:56.934Z,23.06
2019-03-01T21:20:23.516Z,23.06
2019-03-01T21:22:54.327Z,23.04
2019-03-01T21:25:23.965Z,23.03
2019-03-01T21:27:52.445Z,23.04
2019-03-01T21:30:34.650Z,23.04
2019-03-01T21:33:03.051Z,23.04
2019-03-01T21:35:31.448Z,23.02
2019-03-01T21:37:59.854Z,23.01
2019-03-01T21:40:31.464Z,23.01
2019-03-01T21:43:00.180Z,23.00
2019-03-01T21:45:28.513Z,22.99
2019-03-01T21:47:56.969Z,22.98
2019-03-01T21:50:25.381Z,22.97
2019-03-01T21:52:53.783Z,22.96
2019-03-01T21:55:28.558Z,22.94
2019-03-01T21:57:56.727Z,22.92
2019-03-01T22:00:31.391Z,22.92
2019-03-01T22:02:59.608Z,22.91
2019-03-01T22:05:28.079Z,22.89
2019-03-01T22:07:56.508Z,22.88
2019-03-01T22:10:24.917Z,22.86
2019-03-01T22:12:53.327Z,22.85
2019-03-01T22:15:29.399Z,22.83
2019-03-01T22:17:57.795Z,22.82
2019-03-01T22:20:26.245Z,22.81
2019-03-01T22:22:54.635Z,22.80
2019-03-01T22:25:23.104Z,22.78
2019-03-01T22:27:51.507Z,22.76
2019-03-01T22:30:28.770Z,22.75
2019-03-01T22:32:57.162Z,22.73
2019-03-01T22:35:25.572Z,22.72
2019-03-01T22:37:54.042Z,22.71
2019-03-01T22:40:24.006Z,22.69
2019-03-01T22:42:52.566Z,22.69
2019-03-01T22:45:20.967Z,22.66
2019-03-01T22:47:49.372Z,22.63
2019-03-01T22:50:19.991Z,22.63
2019-03-01T22:52:48.538Z,22.60
2019-03-01T22:55:17.774Z,22.59
2019-03-01T22:57:46.173Z,22.58
2019-03-01T23:00:28.052Z,22.58
2019-03-01T23:02:56.451Z,22.56
2019-03-01T23:05:24.857Z,22.55
2019-03-01T23:07:53.258Z,22.54
2019-03-01T23:10:22.402Z,22.53
2019-03-01T23:12:50.903Z,22.50
2019-03-01T23:15:19.389Z,22.49
2019-03-01T23:17:47.807Z,22.48
2019-03-01T23:20:16.219Z,22.47
2019-03-01T23:22:46.039Z,22.46
2019-03-01T23:25:14.697Z,22.45
2019-03-01T23:27:43.100Z,22.44
2019-03-01T23:30:11.534Z,22.43
2019-03-01T23:32:39.925Z,22.42
2019-03-01T23:35:08.397Z,22.41
2019-03-01T23:37:38.814Z,22.41
2019-03-01T23:40:07.476Z,22.40
2019-03-01T23:42:35.952Z,22.38
2019-03-01T23:45:13.813Z,22.37
2019-03-01T23:47:41.431Z,22.35
2019-03-01T23:50:10.331Z,22.35
2019-03-01T23:52:38.805Z,22.34
2019-03-01T23:55:07.872Z,22.29
2019-03-01T23:57:38.089Z,22.33
